Time;durP1;ratioP1;P1;durP2;ratioP2;P2;SDS_P1;SDS_P2;PMS_P1;PMS_P2;Temp;Humidity;BMP_temperature;BMP_pressure;BME280_temperature;BME280_humidity;BME280_pressure;Samples;Min_cycle;Max_cycle;Signal;HPM_P1;HPM_P2
2022/03/21 00:01:21;;;;;;;70.05;47.75;;;5.80;99.90;;;;;;5087793;27;20161;-83
2022/03/21 00:03:47;;;;;;;72.55;47.92;;;5.80;99.90;;;;;;5123986;27;20450;-82
2022/03/21 00:06:13;;;;;;;69.95;47.40;;;5.80;99.90;;;;;;5111748;27;20034;-83
2022/03/21 00:08:39;;;;;;;67.65;47.05;;;5.80;99.90;;;;;;5112735;27;20032;-81
2022/03/21 00:11:05;;;;;;;73.40;48.13;;;5.80;99.90;;;;;;5109307;27;20065;-83
2022/03/21 00:13:31;;;;;;;72.32;47.00;;;5.80;99.90;;;;;;5093397;27;20072;-82
2022/03/21 00:15:57;;;;;;;67.95;45.08;;;5.90;99.90;;;;;;5096241;27;20043;-81
2022/03/21 00:18:24;;;;;;;64.05;44.97;;;5.80;99.90;;;;;;5109104;27;20047;-86
2022/03/21 00:20:53;;;;;;;61.33;42.90;;;5.90;99.90;;;;;;5102219;27;20112;-82
2022/03/21 00:23:19;;;;;;;66.03;43.70;;;5.80;99.90;;;;;;5119380;27;20054;-81
2022/03/21 00:25:45;;;;;;;67.68;43.78;;;5.80;99.90;;;;;;5103301;27;20127;-84
2022/03/21 00:28:11;;;;;;;66.18;44.55;;;5.80;99.90;;;;;;5130060;27;20486;-83
2022/03/21 00:30:39;;;;;;;63.60;42.28;;;5.90;99.90;;;;;;5122147;27;20114;-81
2022/03/21 00:33:06;;;;;;;66.95;43.40;;;6.10;99.90;;;;;;5085573;27;20040;-80
2022/03/21 00:35:32;;;;;;;65.55;41.97;;;5.70;99.90;;;;;;5111332;27;20078;-82
2022/03/21 00:37:58;;;;;;;62.60;41.60;;;5.70;99.90;;;;;;5097331;27;20112;-83
2022/03/21 00:40:24;;;;;;;71.65;43.30;;;6.40;99.90;;;;;;5110599;27;20051;-81
2022/03/21 00:42:51;;;;;;;68.88;43.53;;;5.90;99.90;;;;;;5097906;27;20775;-81
2022/03/21 00:45:19;;;;;;;66.53;42.97;;;5.60;99.90;;;;;;5129685;27;20049;-82
2022/03/21 00:47:47;;;;;;;69.85;42.90;;;5.60;99.90;;;;;;5112150;27;20058;-78
2022/03/21 00:50:14;;;;;;;62.67;41.08;;;5.60;99.90;;;;;;5125622;27;20040;-80
2022/03/21 00:52:47;;;;;;;61.75;40.22;;;5.50;99.90;;;;;;5090506;27;20082;-77
2022/03/21 00:55:15;;;;;;;60.50;40.42;;;5.50;99.90;;;;;;5094208;27;20531;-82
2022/03/21 00:57:42;;;;;;;64.43;40.72;;;5.60;99.90;;;;;;5096466;27;20540;-84
2022/03/21 01:00:20;;;;;;;57.95;39.95;;;5.50;99.90;;;;;;5092079;27;20045;-80
2022/03/21 01:02:47;;;;;;;63.60;40.00;;;5.60;99.90;;;;;;5095662;27;20034;-79
2022/03/21 01:05:13;;;;;;;62.67;40.55;;;5.50;99.90;;;;;;5094341;27;20039;-80
2022/03/21 01:07:40;;;;;;;58.58;38.88;;;5.50;99.90;;;;;;5108330;27;20487;-79
2022/03/21 01:10:08;;;;;;;59.08;37.92;;;5.40;99.90;;;;;;5097004;27;20516;-83
2022/03/21 01:12:33;;;;;;;61.67;38.38;;;5.50;99.90;;;;;;5092572;27;20086;-82
2022/03/21 01:15:00;;;;;;;60.50;37.97;;;5.40;99.90;;;;;;5110499;27;20078;-78
2022/03/21 01:17:25;;;;;;;58.05;36.45;;;5.40;99.90;;;;;;5110426;27;20566;-81
2022/03/21 01:19:51;;;;;;;58.70;37.47;;;5.70;99.90;;;;;;5096347;27;20122;-81
2022/03/21 01:22:17;;;;;;;56.80;36.50;;;5.40;99.90;;;;;;5117653;27;20046;-79
2022/03/21 01:24:42;;;;;;;55.83;35.63;;;5.30;99.90;;;;;;5107667;27;20034;-78
2022/03/21 01:27:09;;;;;;;53.00;35.22;;;5.60;99.90;;;;;;5111859;27;20071;-79
2022/03/21 01:29:35;;;;;;;51.95;34.25;;;5.30;99.90;;;;;;5097172;27;20516;-79
2022/03/21 01:32:01;;;;;;;49.47;33.35;;;5.30;99.90;;;;;;5134875;27;20114;-80
2022/03/21 01:34:27;;;;;;;49.25;32.40;;;5.30;99.90;;;;;;5106545;27;20038;-83
2022/03/21 01:36:52;;;;;;;49.35;32.25;;;5.30;99.90;;;;;;5112341;27;20449;-82
2022/03/21 01:39:19;;;;;;;47.53;31.80;;;5.20;99.90;;;;;;5096418;27;20051;-83
2022/03/21 01:41:45;;;;;;;47.38;31.50;;;5.30;99.90;;;;;;5095146;27;20364;-82
2022/03/21 01:44:11;;;;;;;51.70;31.65;;;5.30;99.90;;;;;;5096797;27;20167;-82
2022/03/21 01:46:39;;;;;;;46.17;29.73;;;5.60;99.90;;;;;;5112508;27;20493;-83
2022/03/21 01:49:07;;;;;;;50.28;30.08;;;5.20;99.90;;;;;;5129100;27;20091;-80
2022/03/21 01:51:35;;;;;;;47.10;29.60;;;5.10;99.90;;;;;;5113021;27;20145;-79
2022/03/21 01:56:47;;;;;;;50.03;28.67;;;5.00;99.90;;;;;;5097394;27;20039;-81
2022/03/21 01:59:14;;;;;;;46.17;28.92;;;5.00;99.90;;;;;;5097271;27;20279;-82
2022/03/21 02:01:41;;;;;;;48.13;28.17;;;5.00;99.90;;;;;;5116391;27;20035;-78
2022/03/21 02:04:07;;;;;;;47.22;27.83;;;4.90;99.90;;;;;;5133233;27;20162;-77
2022/03/21 02:06:33;;;;;;;45.78;26.83;;;4.90;99.90;;;;;;5110876;27;20049;-81
2022/03/21 02:09:01;;;;;;;44.55;27.35;;;5.10;99.90;;;;;;5110763;27;20035;-80
2022/03/21 02:11:27;;;;;;;47.60;26.67;;;4.80;99.90;;;;;;5108874;27;20062;-80
2022/03/21 02:13:58;;;;;;;40.65;27.00;;;4.80;99.90;;;;;;5109668;28;20077;-81
2022/03/21 02:16:27;;;;;;;41.08;25.40;;;4.80;99.90;;;;;;5093057;28;20043;-78
2022/03/21 02:18:53;;;;;;;44.40;26.90;;;4.80;99.90;;;;;;5110970;27;20127;-82
2022/03/21 02:21:24;;;;;;;38.40;25.52;;;4.70;99.90;;;;;;5109940;28;20432;-81
2022/03/21 02:23:56;;;;;;;45.42;26.15;;;4.70;99.90;;;;;;5109537;27;20031;-80
2022/03/21 02:26:24;;;;;;;40.80;24.70;;;4.70;99.90;;;;;;5091573;28;20055;-79
2022/03/21 02:28:50;;;;;;;40.75;25.02;;;4.70;99.90;;;;;;5090121;28;20435;-78
2022/03/21 02:31:17;;;;;;;40.28;24.48;;;4.70;99.90;;;;;;5108994;28;20075;-82
2022/03/21 02:33:43;;;;;;;39.83;24.58;;;4.60;99.90;;;;;;5090864;28;20070;-81
2022/03/21 02:36:11;;;;;;;37.22;24.55;;;4.70;99.90;;;;;;5108176;28;20043;-78
2022/03/21 02:38:38;;;;;;;35.03;22.90;;;4.70;99.90;;;;;;5107684;28;20050;-79
2022/03/21 02:41:04;;;;;;;36.33;22.50;;;4.80;99.90;;;;;;5096582;28;20040;-80
2022/03/21 02:43:29;;;;;;;37.47;22.80;;;4.60;99.90;;;;;;5092543;28;20089;-81
2022/03/21 02:46:05;;;;;;;37.58;22.85;;;4.60;99.90;;;;;;5107324;28;20131;-80
2022/03/21 02:48:32;;;;;;;35.90;22.45;;;4.60;99.90;;;;;;5112938;28;20046;-79
2022/03/21 02:51:02;;;;;;;35.22;22.92;;;4.50;99.90;;;;;;5094201;28;20153;-84
2022/03/21 02:53:30;;;;;;;40.60;22.42;;;4.60;99.90;;;;;;5105610;28;20096;-84
2022/03/21 02:55:56;;;;;;;39.70;23.10;;;4.50;99.90;;;;;;5080979;28;20475;-84
2022/03/21 02:58:22;;;;;;;32.97;22.25;;;4.50;99.90;;;;;;5087211;28;20154;-84
2022/03/21 03:00:48;;;;;;;36.50;22.20;;;4.50;99.90;;;;;;5097160;28;20089;-84
2022/03/21 03:03:14;;;;;;;41.53;21.58;;;4.40;99.90;;;;;;5095366;28;20039;-82
2022/03/21 03:05:40;;;;;;;32.35;21.45;;;4.30;99.90;;;;;;5100016;28;20036;-82
2022/03/21 03:08:05;;;;;;;40.53;23.23;;;4.20;99.90;;;;;;5104996;27;20035;-82
2022/03/21 03:10:31;;;;;;;36.65;21.30;;;4.70;99.90;;;;;;5112134;27;20040;-83
2022/03/21 03:12:57;;;;;;;38.13;21.75;;;4.20;99.90;;;;;;5096083;28;20051;-81
2022/03/21 03:15:23;;;;;;;34.63;20.45;;;4.20;99.90;;;;;;5113181;27;20520;-79
2022/03/21 03:17:48;;;;;;;33.20;21.08;;;4.10;99.90;;;;;;5111408;28;20031;-81
2022/03/21 03:20:15;;;;;;;35.85;20.50;;;4.00;99.90;;;;;;5113460;27;20036;-81
2022/03/21 03:22:41;;;;;;;36.13;21.73;;;4.00;99.90;;;;;;5113405;27;20048;-78
2022/03/21 03:25:07;;;;;;;31.45;20.50;;;4.00;99.90;;;;;;5112294;27;20054;-83
2022/03/21 03:27:33;;;;;;;36.38;20.23;;;4.00;99.90;;;;;;5092777;28;20491;-80
2022/03/21 03:30:01;;;;;;;32.60;20.63;;;4.00;99.90;;;;;;5095642;28;20036;-79
2022/03/21 03:32:27;;;;;;;36.47;20.67;;;4.10;99.90;;;;;;5095619;28;20134;-82
2022/03/21 03:34:53;;;;;;;37.22;20.38;;;4.00;99.90;;;;;;5094362;28;20068;-78
2022/03/21 03:37:19;;;;;;;32.65;19.65;;;4.00;99.90;;;;;;5110788;27;20035;-79
2022/03/21 03:39:45;;;;;;;32.40;19.52;;;3.90;99.90;;;;;;5111345;27;20039;-82
2022/03/21 03:42:11;;;;;;;36.97;20.85;;;4.00;99.90;;;;;;5097283;28;20050;-81
2022/03/21 03:44:36;;;;;;;35.60;19.52;;;3.90;99.90;;;;;;5112058;27;20027;-81
2022/03/21 03:47:03;;;;;;;30.48;19.33;;;4.00;99.90;;;;;;5095085;27;20611;-80
2022/03/21 03:49:28;;;;;;;35.00;19.98;;;3.90;99.90;;;;;;5111429;27;20039;-79
2022/03/21 03:51:54;;;;;;;38.45;19.80;;;3.90;99.90;;;;;;5113390;27;20386;-79
2022/03/21 03:54:20;;;;;;;31.55;19.30;;;4.00;99.90;;;;;;5092610;27;20055;-83
2022/03/21 03:56:46;;;;;;;30.13;18.25;;;4.00;99.90;;;;;;5112157;27;20070;-76
2022/03/21 03:59:12;;;;;;;30.88;19.63;;;3.90;99.90;;;;;;5093875;28;20040;-81
2022/03/21 04:01:38;;;;;;;33.17;19.83;;;4.00;99.90;;;;;;5110167;27;20096;-82
2022/03/21 04:04:04;;;;;;;36.63;20.55;;;4.30;99.90;;;;;;5110651;28;20027;-79
2022/03/21 04:06:30;;;;;;;36.45;20.58;;;3.90;99.90;;;;;;5111528;27;20070;-84
2022/03/21 04:08:56;;;;;;;33.55;19.85;;;4.00;99.90;;;;;;5111517;27;20392;-79
2022/03/21 04:11:21;;;;;;;39.00;20.30;;;3.90;99.90;;;;;;5108786;27;20040;-80
2022/03/21 04:13:51;;;;;;;30.25;19.25;;;3.90;99.90;;;;;;5111002;27;20448;-80
2022/03/21 04:16:18;;;;;;;32.00;20.30;;;3.90;99.90;;;;;;5115172;27;20046;-78
2022/03/21 04:18:43;;;;;;;34.63;19.85;;;3.90;99.90;;;;;;5111398;27;20090;-84
2022/03/21 04:21:09;;;;;;;33.45;20.17;;;3.90;99.90;;;;;;5092219;28;20475;-84
2022/03/21 04:23:35;;;;;;;37.70;20.30;;;3.90;99.90;;;;;;5094693;28;20128;-82
2022/03/21 04:26:01;;;;;;;32.90;19.77;;;3.90;99.90;;;;;;5095033;28;20471;-80
2022/03/21 04:28:26;;;;;;;34.83;19.67;;;3.90;99.90;;;;;;5111610;27;20039;-82
2022/03/21 04:30:52;;;;;;;39.95;20.17;;;3.90;99.90;;;;;;5107822;28;20050;-82
2022/03/21 04:33:18;;;;;;;32.05;19.77;;;3.90;99.90;;;;;;5110487;28;20135;-80
2022/03/21 04:35:45;;;;;;;34.80;20.63;;;3.90;99.90;;;;;;5094990;28;20031;-77
2022/03/21 04:38:15;;;;;;;35.97;20.52;;;3.90;99.90;;;;;;5094284;27;20044;-80
2022/03/21 04:40:50;;;;;;;35.03;19.90;;;3.90;99.90;;;;;;5111235;27;20050;-80
2022/03/21 04:43:19;;;;;;;31.73;19.60;;;3.80;99.90;;;;;;5092881;28;20100;-82
2022/03/21 04:45:45;;;;;;;38.13;20.88;;;3.80;99.90;;;;;;5092138;27;20396;-82
2022/03/21 04:48:14;;;;;;;38.92;20.77;;;3.80;99.90;;;;;;5092340;27;20193;-77
2022/03/21 04:50:39;;;;;;;39.75;21.00;;;3.80;99.90;;;;;;5110380;28;20071;-79
2022/03/21 04:53:06;;;;;;;43.50;22.17;;;3.80;99.90;;;;;;5124871;27;20127;-79
2022/03/21 04:55:32;;;;;;;34.55;19.88;;;4.10;99.90;;;;;;5112410;27;20031;-81
2022/03/21 04:57:59;;;;;;;37.88;20.55;;;3.80;99.90;;;;;;5095698;28;20459;-82
2022/03/21 05:00:25;;;;;;;36.03;19.75;;;3.80;99.90;;;;;;5109839;27;20051;-80
2022/03/21 05:02:51;;;;;;;34.65;20.17;;;3.80;99.90;;;;;;5113242;27;20039;-79
2022/03/21 05:05:16;;;;;;;34.03;19.80;;;3.70;99.90;;;;;;5122285;27;20035;-86
2022/03/21 05:07:45;;;;;;;31.20;20.63;;;3.80;99.90;;;;;;5088964;27;20048;-84
2022/03/21 05:10:14;;;;;;;40.65;20.85;;;3.90;99.90;;;;;;5110820;27;20445;-81
2022/03/21 05:12:40;;;;;;;32.38;20.20;;;3.90;99.90;;;;;;5092888;28;20075;-80
2022/03/21 05:15:07;;;;;;;36.47;21.38;;;3.60;99.90;;;;;;5110641;27;20047;-80
2022/03/21 05:17:37;;;;;;;37.05;21.23;;;3.70;99.90;;;;;;5108790;27;20055;-82
2022/03/21 05:20:16;;;;;;;34.85;19.67;;;3.70;99.90;;;;;;5107114;27;20039;-79
2022/03/21 05:31:02;;;;;;;35.60;20.52;;;3.50;99.90;;;;;;5107138;28;20057;-81
2022/03/21 05:36:12;;;;;;;32.97;19.27;;;3.50;99.90;;;;;;5107933;27;20054;-84
2022/03/21 05:38:38;;;;;;;31.65;19.45;;;3.40;99.90;;;;;;5094930;28;20471;-78
2022/03/21 05:41:04;;;;;;;29.65;18.70;;;3.40;99.90;;;;;;5092512;28;20688;-82
2022/03/21 05:43:32;;;;;;;32.13;18.42;;;3.30;99.90;;;;;;5090093;28;21921;-80
2022/03/21 05:46:00;;;;;;;31.35;18.55;;;3.30;99.90;;;;;;5084797;28;20031;-79
2022/03/21 05:51:12;;;;;;;35.80;19.48;;;3.30;99.90;;;;;;5095950;28;20106;-82
2022/03/21 05:53:38;;;;;;;30.85;18.08;;;3.20;99.90;;;;;;5083690;27;20036;-83
2022/03/21 05:56:04;;;;;;;27.75;17.60;;;3.10;99.90;;;;;;5099535;27;20438;-83
2022/03/21 05:58:30;;;;;;;33.25;19.20;;;3.10;99.90;;;;;;5099299;27;20120;-84
2022/03/21 06:00:56;;;;;;;30.45;18.77;;;3.10;99.90;;;;;;5108191;28;20039;-83
2022/03/21 06:03:24;;;;;;;29.38;18.15;;;3.20;99.90;;;;;;5110498;27;20035;-85
2022/03/21 06:05:50;;;;;;;28.20;12.85;;;3.30;99.90;;;;;;5090845;28;20043;-79
2022/03/21 06:08:16;;;;;;;20.60;12.23;;;4.60;99.90;;;;;;5106009;28;20118;-79
2022/03/21 06:10:42;;;;;;;18.63;11.23;;;5.00;99.90;;;;;;5087193;28;20047;-80
2022/03/21 06:13:08;;;;;;;20.73;12.60;;;5.90;99.90;;;;;;5083882;28;20485;-82
2022/03/21 06:15:37;;;;;;;21.92;12.15;;;6.60;99.90;;;;;;5106642;28;20096;-80
2022/03/21 06:18:09;;;;;;;25.75;11.57;;;6.90;99.90;;;;;;5107953;28;20038;-77
2022/03/21 06:20:36;;;;;;;22.92;15.68;;;7.30;99.90;;;;;;5091249;28;20390;-81
2022/03/21 06:23:02;;;;;;;24.67;14.75;;;7.40;99.90;;;;;;5089567;28;20092;-80
2022/03/21 06:25:28;;;;;;;28.95;15.88;;;6.50;99.90;;;;;;5089742;28;20039;-80
2022/03/21 06:27:54;;;;;;;28.60;16.55;;;6.00;99.90;;;;;;5114906;28;20048;-79
2022/03/21 06:30:19;;;;;;;23.63;15.73;;;5.50;99.90;;;;;;5096966;28;20032;-78
2022/03/21 06:32:45;;;;;;;26.67;17.15;;;5.10;99.90;;;;;;5106387;28;20159;-84
2022/03/21 06:35:11;;;;;;;32.15;17.50;;;4.90;99.90;;;;;;5092200;28;20126;-84
2022/03/21 06:37:39;;;;;;;32.15;17.27;;;4.60;99.90;;;;;;5108963;28;20114;-81
2022/03/21 06:40:06;;;;;;;28.08;18.15;;;4.50;99.90;;;;;;5093344;28;20079;-80
2022/03/21 06:42:31;;;;;;;33.63;18.65;;;4.40;99.90;;;;;;5093928;28;20089;-84
2022/03/21 06:44:57;;;;;;;35.35;20.10;;;4.30;99.90;;;;;;5094339;28;20031;-81
2022/03/21 06:47:23;;;;;;;34.72;19.67;;;4.30;99.90;;;;;;5088507;28;20040;-79
2022/03/21 06:49:49;;;;;;;33.78;19.63;;;4.30;99.90;;;;;;5123080;27;20499;-82
2022/03/21 06:52:16;;;;;;;33.00;20.48;;;4.30;99.90;;;;;;5097795;27;20035;-82
2022/03/21 06:54:42;;;;;;;33.15;20.10;;;4.50;99.90;;;;;;5113134;28;20066;-81
2022/03/21 06:57:09;;;;;;;29.42;19.80;;;4.40;99.90;;;;;;5111082;27;20065;-81
2022/03/21 06:59:35;;;;;;;31.98;19.50;;;4.40;99.90;;;;;;5111884;28;20075;-75
2022/03/21 07:02:01;;;;;;;36.08;21.38;;;4.40;99.90;;;;;;5110922;27;20485;-77
2022/03/21 07:04:26;;;;;;;36.38;23.30;;;4.50;99.90;;;;;;5110025;28;20051;-78
2022/03/21 07:06:53;;;;;;;41.88;23.50;;;4.40;99.90;;;;;;5110353;28;20501;-77
2022/03/21 07:09:19;;;;;;;42.95;25.08;;;4.40;99.90;;;;;;5094568;28;20058;-76
2022/03/21 07:11:45;;;;;;;41.25;25.27;;;4.70;99.90;;;;;;5114365;28;20142;-78
2022/03/21 07:14:12;;;;;;;46.80;26.23;;;4.60;99.90;;;;;;5105912;28;20091;-78
2022/03/21 07:16:37;;;;;;;44.70;27.77;;;4.70;99.90;;;;;;5107272;28;20043;-81
2022/03/21 07:19:03;;;;;;;46.38;28.00;;;4.70;99.90;;;;;;5095060;28;20131;-81
2022/03/21 07:21:29;;;;;;;46.50;27.40;;;4.80;99.90;;;;;;5114412;28;20127;-75
2022/03/21 07:23:54;;;;;;;45.20;26.27;;;4.90;99.90;;;;;;5114127;28;20096;-79
2022/03/21 07:26:20;;;;;;;41.83;25.90;;;5.20;99.90;;;;;;5111352;28;20062;-77
2022/03/21 07:28:46;;;;;;;45.13;27.23;;;5.00;99.90;;;;;;5110257;28;20052;-80
2022/03/21 07:31:13;;;;;;;43.22;27.15;;;5.10;99.90;;;;;;5108563;27;20044;-79
2022/03/21 07:33:41;;;;;;;42.97;26.90;;;5.10;99.90;;;;;;5090077;28;20047;-78
2022/03/21 07:36:08;;;;;;;44.03;26.95;;;5.20;99.90;;;;;;5107305;27;20055;-79
2022/03/21 07:38:35;;;;;;;41.72;26.45;;;5.20;99.90;;;;;;5108465;28;20043;-79
2022/03/21 07:41:02;;;;;;;38.22;25.58;;;5.30;99.90;;;;;;5092601;28;20054;-79
2022/03/21 07:43:28;;;;;;;44.15;26.17;;;5.30;99.90;;;;;;5096732;27;20753;-79
2022/03/21 07:48:42;;;;;;;37.05;24.27;;;5.40;99.90;;;;;;5112799;27;20043;-78
2022/03/21 07:51:07;;;;;;;36.03;21.70;;;5.50;99.90;;;;;;5108303;27;20196;-77
2022/03/21 07:53:33;;;;;;;37.72;24.23;;;5.60;99.90;;;;;;5094183;28;20184;-79
2022/03/21 07:56:00;;;;;;;37.65;23.98;;;5.70;99.90;;;;;;5109192;27;20074;-81
2022/03/21 07:58:29;;;;;;;39.83;24.80;;;5.80;99.90;;;;;;5103668;27;20052;-82
2022/03/21 08:00:56;;;;;;;41.95;24.60;;;5.80;99.90;;;;;;5089848;27;20071;-80
2022/03/21 08:03:56;;;;;;;39.08;24.20;;;5.80;99.90;;;;;;5087336;28;20058;-84
2022/03/21 08:06:22;;;;;;;37.50;24.55;;;5.90;99.90;;;;;;5100578;28;20044;-81
2022/03/21 08:08:49;;;;;;;38.85;23.30;;;5.90;99.90;;;;;;5099857;28;20396;-82
2022/03/21 08:11:17;;;;;;;39.90;23.90;;;6.10;99.90;;;;;;5112511;28;20069;-81
2022/03/21 08:13:42;;;;;;;35.85;23.15;;;6.00;99.90;;;;;;5112032;28;20089;-79
2022/03/21 08:16:08;;;;;;;38.10;22.85;;;6.10;99.90;;;;;;5111290;28;20052;-81
2022/03/21 08:18:37;;;;;;;40.25;23.20;;;6.20;99.90;;;;;;5112497;28;20183;-81
2022/03/21 08:21:03;;;;;;;38.20;23.33;;;6.30;99.90;;;;;;5113013;28;20048;-83
2022/03/21 08:23:29;;;;;;;36.28;22.92;;;6.30;99.90;;;;;;5096491;28;20411;-80
2022/03/21 08:25:56;;;;;;;37.45;22.25;;;6.40;99.90;;;;;;5110688;28;20052;-79
2022/03/21 08:28:21;;;;;;;34.80;22.55;;;6.60;99.90;;;;;;5091877;28;20500;-82
2022/03/21 08:30:47;;;;;;;40.50;23.25;;;6.60;99.90;;;;;;5087991;28;20059;-80
2022/03/21 08:33:13;;;;;;;38.95;22.63;;;6.60;99.90;;;;;;5113406;28;20387;-79
2022/03/21 08:35:44;;;;;;;40.30;24.60;;;6.80;99.90;;;;;;5087683;28;20468;-85
2022/03/21 08:38:10;;;;;;;41.45;24.88;;;6.80;99.90;;;;;;5098826;27;20044;-80
2022/03/21 08:40:37;;;;;;;42.70;24.38;;;6.80;99.90;;;;;;5080650;28;20371;-80
2022/03/21 08:43:04;;;;;;;36.13;23.23;;;7.00;99.90;;;;;;5087184;28;20049;-77
2022/03/21 08:45:29;;;;;;;38.80;23.58;;;7.10;99.90;;;;;;5106796;28;20073;-75
2022/03/21 08:47:55;;;;;;;37.90;24.77;;;7.20;99.90;;;;;;5101518;28;20148;-75
2022/03/21 08:50:21;;;;;;;42.45;24.30;;;7.30;99.90;;;;;;5102205;28;20482;-78
2022/03/21 08:52:47;;;;;;;38.08;23.95;;;7.40;99.90;;;;;;5101241;27;20046;-79
2022/03/21 08:55:12;;;;;;;41.85;24.50;;;7.50;99.90;;;;;;5086167;28;20500;-80
2022/03/21 08:57:38;;;;;;;42.85;24.95;;;7.60;99.90;;;;;;5101190;27;20146;-82
2022/03/21 09:00:10;;;;;;;39.85;24.17;;;7.60;99.90;;;;;;5103224;27;20153;-81
2022/03/21 09:02:36;;;;;;;40.45;24.33;;;7.70;99.90;;;;;;5108668;27;20059;-82
2022/03/21 09:05:04;;;;;;;40.72;24.73;;;7.80;99.90;;;;;;5102784;27;20048;-82
2022/03/21 09:07:30;;;;;;;37.38;24.52;;;7.90;99.90;;;;;;5103382;27;20477;-82
2022/03/21 09:09:56;;;;;;;38.65;23.58;;;7.90;99.90;;;;;;5110972;27;20164;-78
2022/03/21 09:12:21;;;;;;;40.40;23.67;;;8.10;99.90;;;;;;5103294;28;20166;-79
2022/03/21 09:14:47;;;;;;;39.95;23.48;;;8.30;99.90;;;;;;5087935;27;20561;-80
2022/03/21 09:17:13;;;;;;;36.17;23.08;;;8.40;99.90;;;;;;5091161;28;20112;-80
2022/03/21 09:19:39;;;;;;;35.92;21.98;;;8.60;99.90;;;;;;5102328;27;20471;-81
2022/03/21 09:22:05;;;;;;;35.78;21.65;;;8.50;99.90;;;;;;5105384;27;20042;-81
2022/03/21 09:24:32;;;;;;;33.92;21.77;;;8.80;99.90;;;;;;5105937;27;20047;-80
2022/03/21 09:26:58;;;;;;;36.47;21.73;;;8.80;99.90;;;;;;5109697;27;20138;-77
2022/03/21 09:29:24;;;;;;;34.22;21.17;;;8.90;99.90;;;;;;5092457;28;20075;-83
2022/03/21 09:31:50;;;;;;;33.25;20.80;;;9.00;99.90;;;;;;5104193;27;20151;-78
2022/03/21 09:34:17;;;;;;;35.17;21.55;;;9.10;99.90;;;;;;5111429;27;20192;-80
2022/03/21 09:36:44;;;;;;;32.47;21.75;;;9.20;99.90;;;;;;5076632;28;20034;-75
2022/03/21 09:39:10;;;;;;;29.52;20.30;;;9.30;99.90;;;;;;5099650;27;20098;-81
2022/03/21 09:41:36;;;;;;;31.55;21.25;;;9.50;99.90;;;;;;5087344;27;20050;-78
2022/03/21 09:44:07;;;;;;;39.47;22.33;;;9.60;99.90;;;;;;5105005;27;20489;-79
2022/03/21 09:46:33;;;;;;;33.58;21.33;;;9.70;99.90;;;;;;5103465;27;20111;-79
2022/03/21 09:48:59;;;;;;;35.08;22.52;;;9.70;99.90;;;;;;5104130;27;20043;-81
2022/03/21 09:51:29;;;;;;;35.92;21.83;;;10.00;99.90;;;;;;5104251;27;20047;-83
2022/03/21 09:53:56;;;;;;;31.08;20.73;;;10.10;99.90;;;;;;5085860;28;20167;-77
2022/03/21 09:56:23;;;;;;;35.30;19.58;;;10.20;99.90;;;;;;5108905;28;20047;-79
2022/03/21 09:58:49;;;;;;;33.80;20.95;;;10.40;99.90;;;;;;5101927;28;20074;-81
2022/03/21 10:01:16;;;;;;;32.03;21.20;;;10.30;99.90;;;;;;5105862;28;20035;-76
2022/03/21 10:03:42;;;;;;;33.15;19.55;;;10.40;99.90;;;;;;5103168;28;20053;-78
2022/03/21 10:06:32;;;;;;;33.42;20.40;;;10.50;99.90;;;;;;5101434;28;20048;-77
2022/03/21 10:09:17;;;;;;;29.80;18.45;;;10.60;99.90;;;;;;5085800;28;20749;-76
2022/03/21 10:11:50;;;;;;;28.73;19.08;;;10.60;99.90;;;;;;5097876;28;20044;-79
2022/03/21 10:14:34;;;;;;;31.75;19.20;;;10.70;99.90;;;;;;5096359;28;20481;-82
2022/03/21 10:17:05;;;;;;;30.45;18.08;;;10.70;99.90;;;;;;5079171;28;20036;-77
2022/03/21 10:19:52;;;;;;;28.90;18.33;;;11.00;99.90;;;;;;5086736;28;20031;-80
2022/03/21 10:22:33;;;;;;;31.55;19.00;;;11.20;99.90;;;;;;5102064;28;20047;-78
2022/03/21 10:25:04;;;;;;;32.03;19.33;;;11.40;99.90;;;;;;5098263;28;20051;-78
2022/03/21 10:27:39;;;;;;;29.08;18.52;;;11.60;99.90;;;;;;5081306;28;20395;-75
2022/03/21 10:30:10;;;;;;;29.80;18.45;;;11.70;99.90;;;;;;5099001;28;20047;-78
2022/03/21 10:32:37;;;;;;;28.00;18.30;;;11.90;99.90;;;;;;5097987;28;20059;-80
2022/03/21 10:35:06;;;;;;;31.20;18.90;;;11.90;99.90;;;;;;5100791;28;20049;-79
2022/03/21 10:37:49;;;;;;;26.33;18.58;;;12.10;99.90;;;;;;5097036;28;20032;-81
2022/03/21 10:40:25;;;;;;;27.95;18.38;;;12.30;99.90;;;;;;5095567;28;20059;-78
2022/03/21 10:43:06;;;;;;;26.98;19.10;;;12.50;99.90;;;;;;5099428;28;20061;-82
2022/03/21 10:45:35;;;;;;;26.65;18.55;;;12.80;99.90;;;;;;5099415;28;20062;-84
2022/03/21 10:48:03;;;;;;;26.10;18.23;;;12.90;99.90;;;;;;5098948;28;20040;-85
2022/03/21 10:50:31;;;;;;;29.92;19.08;;;13.10;99.90;;;;;;5084920;28;20052;-80
2022/03/21 10:53:15;;;;;;;27.02;18.55;;;13.30;99.90;;;;;;5103807;28;20114;-80
2022/03/21 10:55:43;;;;;;;26.88;17.92;;;13.50;99.90;;;;;;5103187;28;20056;-77
2022/03/21 10:58:10;;;;;;;26.30;19.80;;;13.80;99.90;;;;;;5105120;28;20051;-82
2022/03/21 11:00:36;;;;;;;27.27;18.88;;;13.90;99.90;;;;;;5089956;28;20084;-85
2022/03/21 11:03:09;;;;;;;25.42;18.63;;;14.20;99.90;;;;;;5085420;28;20059;-85
2022/03/21 11:05:40;;;;;;;24.33;18.25;;;14.10;99.90;;;;;;5102965;28;20051;-81
2022/03/21 11:08:08;;;;;;;29.42;17.90;;;14.40;99.90;;;;;;5101912;28;20138;-86
2022/03/21 11:10:34;;;;;;;24.00;17.73;;;14.60;99.90;;;;;;5104750;28;20123;-78
2022/03/21 11:13:01;;;;;;;26.48;17.80;;;14.80;99.90;;;;;;5107717;28;20180;-81
2022/03/21 11:15:30;;;;;;;24.45;17.13;;;14.90;99.90;;;;;;5103774;28;20429;-84
2022/03/21 11:17:56;;;;;;;24.77;16.27;;;15.20;99.90;;;;;;5079147;28;20059;-79
2022/03/21 11:20:22;;;;;;;25.58;17.40;;;15.40;99.90;;;;;;5111152;28;20502;-80
2022/03/21 11:22:48;;;;;;;29.13;17.35;;;15.60;99.90;;;;;;5108745;28;20055;-80
2022/03/21 11:25:17;;;;;;;26.95;17.15;;;15.70;99.90;;;;;;5110886;27;20043;-81
2022/03/21 11:28:14;;;;;;;21.13;16.48;;;15.70;99.90;;;;;;5113156;27;20055;-84
2022/03/21 11:30:43;;;;;;;27.40;17.38;;;15.80;98.90;;;;;;5090626;27;20398;-85
2022/03/21 11:33:15;;;;;;;23.33;17.17;;;15.80;99.90;;;;;;5094964;27;20175;-82
2022/03/21 11:35:49;;;;;;;23.20;16.50;;;16.00;99.90;;;;;;5114230;27;20347;-82
2022/03/21 11:38:27;;;;;;;24.30;16.77;;;16.00;99.90;;;;;;5095060;27;20864;-80
2022/03/21 11:41:24;;;;;;;22.50;17.05;;;16.10;99.90;;;;;;5110038;27;20051;-77
2022/03/21 11:44:14;;;;;;;22.25;16.17;;;16.40;99.90;;;;;;5110786;27;20047;-79
2022/03/21 11:46:42;;;;;;;22.60;16.38;;;16.60;99.60;;;;;;5113035;27;20146;-82
2022/03/21 11:49:16;;;;;;;23.83;16.27;;;16.80;99.90;;;;;;5097089;27;20061;-79
2022/03/21 11:51:43;;;;;;;19.63;15.85;;;16.90;98.40;;;;;;5113742;27;20047;-83
2022/03/21 11:54:45;;;;;;;11.80;7.82;;;16.80;98.30;;;;;;5111964;27;20047;-78
2022/03/21 11:57:23;;;;;;;22.88;16.40;;;17.40;96.80;;;;;;4987817;28;20109;-79
2022/03/21 11:59:52;;;;;;;24.75;16.25;;;17.20;97.80;;;;;;4990571;28;20053;-80
2022/03/21 12:02:17;;;;;;;23.48;15.55;;;17.20;95.80;;;;;;4988953;28;20457;-80
2022/03/21 12:04:56;;;;;;;23.77;15.80;;;17.60;97.70;;;;;;4969012;28;20137;-79
2022/03/21 12:07:22;;;;;;;19.40;15.55;;;17.60;96.70;;;;;;4989977;28;20062;-84
2022/03/21 12:09:52;;;;;;;21.67;14.88;;;17.80;96.20;;;;;;4986240;28;20041;-78
2022/03/21 12:12:24;;;;;;;17.52;14.73;;;17.90;94.20;;;;;;4990803;28;20056;-78
2022/03/21 12:14:56;;;;;;;19.63;15.18;;;17.90;94.80;;;;;;4986983;28;20430;-79
2022/03/21 12:17:22;;;;;;;22.55;15.77;;;18.10;94.50;;;;;;5006498;28;20060;-82
2022/03/21 12:19:51;;;;;;;24.17;15.88;;;17.80;94.60;;;;;;4967808;28;20061;-80
2022/03/21 12:25:29;;;;;;;22.85;16.30;;;17.60;90.90;;;;;;4987688;28;20091;-80
2022/03/21 12:27:58;;;;;;;26.45;15.18;;;18.00;93.70;;;;;;4983440;28;20061;-79
2022/03/21 12:30:29;;;;;;;20.65;14.43;;;18.40;92.90;;;;;;5016826;27;20047;-81
2022/03/21 12:33:09;;;;;;;23.27;14.88;;;18.70;93.40;;;;;;5104100;27;20080;-88
2022/03/21 12:35:39;;;;;;;22.60;14.65;;;18.80;92.00;;;;;;5111689;27;22427;-84
2022/03/21 12:38:23;;;;;;;18.55;14.02;;;19.00;90.90;;;;;;5092238;27;20051;-85
2022/03/21 12:41:00;;;;;;;20.27;14.75;;;19.40;91.70;;;;;;5082307;27;20050;-86
2022/03/21 12:43:27;;;;;;;24.45;14.70;;;19.50;90.20;;;;;;5097562;27;20050;-88
2022/03/21 12:46:05;;;;;;;23.98;13.30;;;19.30;89.90;;;;;;5106625;27;20061;-81
2022/03/21 12:48:33;;;;;;;32.60;15.50;;;19.10;83.50;;;;;;5096116;27;20446;-81
2022/03/21 12:51:00;;;;;;;19.30;14.32;;;19.30;86.70;;;;;;5111296;27;20117;-84
2022/03/21 12:54:02;;;;;;;20.80;14.27;;;19.20;85.00;;;;;;5106350;27;20096;-82
2022/03/21 12:56:28;;;;;;;20.33;14.00;;;19.10;84.80;;;;;;5092815;27;20065;-82
2022/03/21 12:59:04;;;;;;;19.77;14.15;;;19.40;82.20;;;;;;5091784;27;20046;-85
2022/03/21 13:01:32;;;;;;;20.25;14.48;;;19.40;79.30;;;;;;5095976;27;20039;-79
2022/03/21 13:12:35;;;;;;;19.95;13.10;;;20.20;74.50;;;;;;5108087;27;20505;-84